sensor_id;sensor_type;location;lat;lon;timestamp;P1;durP1;ratioP1;P2;durP2;ratioP2
25123;SDS011;13104;51.030;4.686;2022-12-16T00:02:07;66.63;;;33.42;;
25123;SDS011;13104;51.030;4.686;2022-12-16T00:04:33;67.93;;;33.60;;
25123;SDS011;13104;51.030;4.686;2022-12-16T00:06:59;59.30;;;31.42;;
25123;SDS011;13104;51.030;4.686;2022-12-16T00:09:25;69.95;;;33.17;;
25123;SDS011;13104;51.030;4.686;2022-12-16T00:11:51;66.38;;;32.20;;
25123;SDS011;13104;51.030;4.686;2022-12-16T00:14:17;64.47;;;33.50;;
25123;SDS011;13104;51.030;4.686;2022-12-16T00:16:44;72.68;;;34.85;;
25123;SDS011;13104;51.030;4.686;2022-12-16T00:19:10;67.95;;;34.08;;
25123;SDS011;13104;51.030;4.686;2022-12-16T00:21:36;71.30;;;34.08;;
25123;SDS011;13104;51.030;4.686;2022-12-16T00:24:02;62.83;;;31.85;;
25123;SDS011;13104;51.030;4.686;2022-12-16T00:26:29;66.03;;;31.77;;
25123;SDS011;13104;51.030;4.686;2022-12-16T00:28:55;61.55;;;31.55;;
25123;SDS011;13104;51.030;4.686;2022-12-16T00:31:21;68.60;;;33.00;;
25123;SDS011;13104;51.030;4.686;2022-12-16T00:33:47;69.10;;;32.20;;
25123;SDS011;13104;51.030;4.686;2022-12-16T00:36:14;59.42;;;30.35;;
25123;SDS011;13104;51.030;4.686;2022-12-16T00:38:40;58.47;;;31.63;;
25123;SDS011;13104;51.030;4.686;2022-12-16T00:41:06;63.42;;;30.60;;
25123;SDS011;13104;51.030;4.686;2022-12-16T00:43:33;59.55;;;29.70;;
25123;SDS011;13104;51.030;4.686;2022-12-16T00:45:59;61.22;;;29.92;;
25123;SDS011;13104;51.030;4.686;2022-12-16T00:48:25;63.72;;;30.15;;
25123;SDS011;13104;51.030;4.686;2022-12-16T00:50:52;61.38;;;30.35;;
25123;SDS011;13104;51.030;4.686;2022-12-16T00:53:19;59.53;;;30.38;;
25123;SDS011;13104;51.030;4.686;2022-12-16T00:55:46;65.85;;;30.80;;
25123;SDS011;13104;51.030;4.686;2022-12-16T00:58:12;54.95;;;29.15;;
25123;SDS011;13104;51.030;4.686;2022-12-16T01:00:38;56.55;;;29.60;;
25123;SDS011;13104;51.030;4.686;2022-12-16T01:03:04;65.25;;;33.92;;
25123;SDS011;13104;51.030;4.686;2022-12-16T01:05:30;58.92;;;31.30;;
25123;SDS011;13104;51.030;4.686;2022-12-16T01:07:56;68.40;;;31.63;;
25123;SDS011;13104;51.030;4.686;2022-12-16T01:10:23;60.47;;;30.60;;
25123;SDS011;13104;51.030;4.686;2022-12-16T01:12:49;60.60;;;32.83;;
25123;SDS011;13104;51.030;4.686;2022-12-16T01:15:16;66.43;;;33.95;;
25123;SDS011;13104;51.030;4.686;2022-12-16T01:17:42;61.33;;;32.88;;
25123;SDS011;13104;51.030;4.686;2022-12-16T01:20:09;63.28;;;32.22;;
25123;SDS011;13104;51.030;4.686;2022-12-16T01:22:35;63.35;;;31.98;;
25123;SDS011;13104;51.030;4.686;2022-12-16T01:25:02;70.05;;;33.60;;
25123;SDS011;13104;51.030;4.686;2022-12-16T01:27:28;58.35;;;31.90;;
25123;SDS011;13104;51.030;4.686;2022-12-16T01:29:55;62.08;;;31.75;;
25123;SDS011;13104;51.030;4.686;2022-12-16T01:32:21;63.30;;;32.63;;
25123;SDS011;13104;51.030;4.686;2022-12-16T01:34:48;63.78;;;32.78;;
25123;SDS011;13104;51.030;4.686;2022-12-16T01:37:15;62.75;;;32.92;;
25123;SDS011;13104;51.030;4.686;2022-12-16T01:39:41;64.75;;;32.60;;
25123;SDS011;13104;51.030;4.686;2022-12-16T01:42:11;65.60;;;32.90;;
25123;SDS011;13104;51.030;4.686;2022-12-16T01:44:37;62.90;;;32.58;;
25123;SDS011;13104;51.030;4.686;2022-12-16T01:47:04;63.97;;;33.20;;
25123;SDS011;13104;51.030;4.686;2022-12-16T01:50:05;60.80;;;31.48;;
25123;SDS011;13104;51.030;4.686;2022-12-16T01:52:29;59.10;;;32.00;;
25123;SDS011;13104;51.030;4.686;2022-12-16T01:54:58;64.63;;;32.97;;
25123;SDS011;13104;51.030;4.686;2022-12-16T01:57:27;60.97;;;32.35;;
25123;SDS011;13104;51.030;4.686;2022-12-16T01:59:55;63.38;;;32.80;;
25123;SDS011;13104;51.030;4.686;2022-12-16T02:02:22;66.57;;;32.22;;
25123;SDS011;13104;51.030;4.686;2022-12-16T02:04:48;65.25;;;33.80;;
25123;SDS011;13104;51.030;4.686;2022-12-16T02:07:33;70.68;;;33.60;;
25123;SDS011;13104;51.030;4.686;2022-12-16T02:10:00;65.53;;;32.03;;
25123;SDS011;13104;51.030;4.686;2022-12-16T02:18:19;62.20;;;32.25;;
25123;SDS011;13104;51.030;4.686;2022-12-16T02:30:54;68.07;;;31.25;;
25123;SDS011;13104;51.030;4.686;2022-12-16T02:39:36;62.40;;;30.55;;
25123;SDS011;13104;51.030;4.686;2022-12-16T02:45:00;60.10;;;32.05;;
25123;SDS011;13104;51.030;4.686;2022-12-16T02:47:18;56.97;;;29.73;;
25123;SDS011;13104;51.030;4.686;2022-12-16T02:49:46;60.72;;;31.15;;
25123;SDS011;13104;51.030;4.686;2022-12-16T02:52:13;62.67;;;31.35;;
25123;SDS011;13104;51.030;4.686;2022-12-16T02:54:39;60.55;;;31.02;;
25123;SDS011;13104;51.030;4.686;2022-12-16T03:04:36;53.13;;;29.70;;
25123;SDS011;13104;51.030;4.686;2022-12-16T03:07:03;57.35;;;30.02;;
25123;SDS011;13104;51.030;4.686;2022-12-16T03:09:32;54.72;;;30.05;;
25123;SDS011;13104;51.030;4.686;2022-12-16T03:12:00;58.53;;;29.90;;
25123;SDS011;13104;51.030;4.686;2022-12-16T03:14:28;56.88;;;29.52;;
25123;SDS011;13104;51.030;4.686;2022-12-16T03:16:56;59.67;;;30.65;;
25123;SDS011;13104;51.030;4.686;2022-12-16T03:19:23;53.65;;;27.58;;
25123;SDS011;13104;51.030;4.686;2022-12-16T03:22:06;52.55;;;28.83;;
25123;SDS011;13104;51.030;4.686;2022-12-16T03:24:34;54.45;;;27.77;;
25123;SDS011;13104;51.030;4.686;2022-12-16T03:27:07;57.53;;;30.40;;
25123;SDS011;13104;51.030;4.686;2022-12-16T03:29:41;48.72;;;28.38;;
25123;SDS011;13104;51.030;4.686;2022-12-16T03:32:54;56.65;;;29.75;;
25123;SDS011;13104;51.030;4.686;2022-12-16T03:37:30;57.78;;;30.05;;
25123;SDS011;13104;51.030;4.686;2022-12-16T03:39:59;54.10;;;27.73;;
25123;SDS011;13104;51.030;4.686;2022-12-16T03:42:26;56.55;;;29.40;;
25123;SDS011;13104;51.030;4.686;2022-12-16T03:44:52;52.30;;;28.73;;
25123;SDS011;13104;51.030;4.686;2022-12-16T03:47:18;57.67;;;29.50;;
25123;SDS011;13104;51.030;4.686;2022-12-16T03:49:44;54.65;;;28.35;;
25123;SDS011;13104;51.030;4.686;2022-12-16T03:52:10;53.85;;;28.73;;
25123;SDS011;13104;51.030;4.686;2022-12-16T03:54:37;54.60;;;28.85;;
25123;SDS011;13104;51.030;4.686;2022-12-16T03:57:03;56.35;;;30.45;;
25123;SDS011;13104;51.030;4.686;2022-12-16T03:59:29;67.45;;;30.58;;
25123;SDS011;13104;51.030;4.686;2022-12-16T04:01:55;55.20;;;29.25;;
25123;SDS011;13104;51.030;4.686;2022-12-16T04:04:21;54.38;;;28.30;;
25123;SDS011;13104;51.030;4.686;2022-12-16T04:06:47;60.40;;;30.15;;
25123;SDS011;13104;51.030;4.686;2022-12-16T04:09:33;54.92;;;28.63;;
25123;SDS011;13104;51.030;4.686;2022-12-16T04:11:59;57.40;;;28.50;;
25123;SDS011;13104;51.030;4.686;2022-12-16T04:14:44;53.00;;;28.90;;
25123;SDS011;13104;51.030;4.686;2022-12-16T04:17:29;76.32;;;28.88;;
25123;SDS011;13104;51.030;4.686;2022-12-16T04:20:15;59.80;;;29.50;;
25123;SDS011;13104;51.030;4.686;2022-12-16T04:23:00;55.75;;;28.27;;
25123;SDS011;13104;51.030;4.686;2022-12-16T04:25:44;72.85;;;31.40;;
25123;SDS011;13104;51.030;4.686;2022-12-16T04:28:11;77.47;;;30.55;;
25123;SDS011;13104;51.030;4.686;2022-12-16T04:30:37;74.57;;;30.88;;
25123;SDS011;13104;51.030;4.686;2022-12-16T04:33:04;66.93;;;30.52;;
25123;SDS011;13104;51.030;4.686;2022-12-16T04:35:49;72.38;;;30.42;;
25123;SDS011;13104;51.030;4.686;2022-12-16T04:38:34;68.68;;;30.75;;
25123;SDS011;13104;51.030;4.686;2022-12-16T04:41:18;66.80;;;29.75;;
25123;SDS011;13104;51.030;4.686;2022-12-16T04:44:03;68.53;;;31.25;;
25123;SDS011;13104;51.030;4.686;2022-12-16T04:46:47;71.70;;;31.85;;
25123;SDS011;13104;51.030;4.686;2022-12-16T04:49:32;69.50;;;29.80;;
25123;SDS011;13104;51.030;4.686;2022-12-16T04:52:17;73.93;;;30.13;;
25123;SDS011;13104;51.030;4.686;2022-12-16T04:55:01;69.00;;;29.17;;
25123;SDS011;13104;51.030;4.686;2022-12-16T04:57:53;68.05;;;31.25;;
25123;SDS011;13104;51.030;4.686;2022-12-16T05:00:38;69.57;;;30.27;;
25123;SDS011;13104;51.030;4.686;2022-12-16T05:06:08;64.95;;;27.88;;
25123;SDS011;13104;51.030;4.686;2022-12-16T05:08:52;66.00;;;29.20;;
25123;SDS011;13104;51.030;4.686;2022-12-16T05:11:37;70.22;;;29.13;;
25123;SDS011;13104;51.030;4.686;2022-12-16T05:14:22;68.68;;;28.88;;
25123;SDS011;13104;51.030;4.686;2022-12-16T05:17:06;69.57;;;29.70;;
25123;SDS011;13104;51.030;4.686;2022-12-16T05:19:51;69.18;;;28.63;;
25123;SDS011;13104;51.030;4.686;2022-12-16T05:22:36;65.97;;;29.38;;
25123;SDS011;13104;51.030;4.686;2022-12-16T05:25:20;63.28;;;29.38;;
25123;SDS011;13104;51.030;4.686;2022-12-16T05:28:05;66.35;;;28.23;;
25123;SDS011;13104;51.030;4.686;2022-12-16T05:30:51;60.35;;;27.08;;
25123;SDS011;13104;51.030;4.686;2022-12-16T05:33:35;47.47;;;20.40;;
25123;SDS011;13104;51.030;4.686;2022-12-16T05:36:19;61.22;;;27.15;;
25123;SDS011;13104;51.030;4.686;2022-12-16T05:39:05;61.13;;;28.15;;
25123;SDS011;13104;51.030;4.686;2022-12-16T05:41:50;58.88;;;26.80;;
25123;SDS011;13104;51.030;4.686;2022-12-16T05:44:34;58.75;;;26.85;;
25123;SDS011;13104;51.030;4.686;2022-12-16T05:47:19;56.80;;;26.85;;
25123;SDS011;13104;51.030;4.686;2022-12-16T05:50:04;58.72;;;26.95;;
25123;SDS011;13104;51.030;4.686;2022-12-16T05:52:53;54.50;;;25.58;;
25123;SDS011;13104;51.030;4.686;2022-12-16T05:55:38;56.78;;;25.17;;
25123;SDS011;13104;51.030;4.686;2022-12-16T05:58:23;55.05;;;25.50;;
25123;SDS011;13104;51.030;4.686;2022-12-16T06:01:08;55.40;;;26.92;;
25123;SDS011;13104;51.030;4.686;2022-12-16T06:03:53;55.25;;;25.88;;
25123;SDS011;13104;51.030;4.686;2022-12-16T06:06:38;59.42;;;28.27;;
25123;SDS011;13104;51.030;4.686;2022-12-16T06:09:22;61.22;;;27.13;;
25123;SDS011;13104;51.030;4.686;2022-12-16T06:12:07;60.38;;;27.23;;
25123;SDS011;13104;51.030;4.686;2022-12-16T06:14:51;64.95;;;28.05;;
25123;SDS011;13104;51.030;4.686;2022-12-16T06:17:40;61.80;;;28.17;;
25123;SDS011;13104;51.030;4.686;2022-12-16T06:20:24;59.70;;;26.30;;
25123;SDS011;13104;51.030;4.686;2022-12-16T06:23:09;66.05;;;28.77;;
25123;SDS011;13104;51.030;4.686;2022-12-16T06:25:54;56.60;;;28.17;;
25123;SDS011;13104;51.030;4.686;2022-12-16T06:28:39;51.50;;;24.80;;
25123;SDS011;13104;51.030;4.686;2022-12-16T06:31:23;56.53;;;26.08;;
25123;SDS011;13104;51.030;4.686;2022-12-16T06:34:08;53.08;;;24.48;;
25123;SDS011;13104;51.030;4.686;2022-12-16T06:36:53;52.17;;;24.48;;
25123;SDS011;13104;51.030;4.686;2022-12-16T06:39:37;49.40;;;23.55;;
25123;SDS011;13104;51.030;4.686;2022-12-16T06:42:22;51.20;;;24.55;;
25123;SDS011;13104;51.030;4.686;2022-12-16T06:45:07;54.40;;;24.52;;
25123;SDS011;13104;51.030;4.686;2022-12-16T06:47:51;53.90;;;23.35;;
25123;SDS011;13104;51.030;4.686;2022-12-16T06:50:36;50.70;;;23.77;;
25123;SDS011;13104;51.030;4.686;2022-12-16T06:53:21;42.03;;;21.50;;
25123;SDS011;13104;51.030;4.686;2022-12-16T06:56:05;40.65;;;21.42;;
25123;SDS011;13104;51.030;4.686;2022-12-16T07:01:35;29.27;;;15.45;;
25123;SDS011;13104;51.030;4.686;2022-12-16T07:04:20;36.80;;;20.33;;
25123;SDS011;13104;51.030;4.686;2022-12-16T07:07:05;46.92;;;22.42;;
25123;SDS011;13104;51.030;4.686;2022-12-16T07:09:49;45.15;;;22.02;;
25123;SDS011;13104;51.030;4.686;2022-12-16T07:12:34;45.55;;;21.70;;
25123;SDS011;13104;51.030;4.686;2022-12-16T07:15:19;41.25;;;22.67;;
25123;SDS011;13104;51.030;4.686;2022-12-16T07:18:03;48.22;;;22.45;;
25123;SDS011;13104;51.030;4.686;2022-12-16T07:20:48;54.03;;;24.85;;
25123;SDS011;13104;51.030;4.686;2022-12-16T07:23:34;47.60;;;24.50;;
25123;SDS011;13104;51.030;4.686;2022-12-16T07:26:18;47.10;;;23.75;;
25123;SDS011;13104;51.030;4.686;2022-12-16T07:29:03;49.92;;;24.45;;
25123;SDS011;13104;51.030;4.686;2022-12-16T07:31:47;50.90;;;25.20;;
25123;SDS011;13104;51.030;4.686;2022-12-16T07:34:32;45.10;;;24.77;;
25123;SDS011;13104;51.030;4.686;2022-12-16T07:37:17;54.85;;;25.85;;
25123;SDS011;13104;51.030;4.686;2022-12-16T07:40:22;44.55;;;23.85;;
25123;SDS011;13104;51.030;4.686;2022-12-16T07:43:07;49.85;;;25.95;;
25123;SDS011;13104;51.030;4.686;2022-12-16T07:45:51;49.20;;;25.27;;
25123;SDS011;13104;51.030;4.686;2022-12-16T07:51:21;53.30;;;25.87;;
25123;SDS011;13104;51.030;4.686;2022-12-16T07:54:06;55.67;;;26.23;;
25123;SDS011;13104;51.030;4.686;2022-12-16T07:59:35;40.50;;;18.98;;
25123;SDS011;13104;51.030;4.686;2022-12-16T08:02:20;56.53;;;27.00;;
25123;SDS011;13104;51.030;4.686;2022-12-16T08:05:05;63.22;;;29.95;;
25123;SDS011;13104;51.030;4.686;2022-12-16T08:07:49;56.53;;;27.58;;
25123;SDS011;13104;51.030;4.686;2022-12-16T08:10:34;65.30;;;29.67;;
25123;SDS011;13104;51.030;4.686;2022-12-16T08:13:18;55.95;;;27.08;;
25123;SDS011;13104;51.030;4.686;2022-12-16T08:16:03;59.88;;;27.95;;
25123;SDS011;13104;51.030;4.686;2022-12-16T08:18:47;57.83;;;28.23;;
25123;SDS011;13104;51.030;4.686;2022-12-16T08:21:32;56.25;;;27.90;;
25123;SDS011;13104;51.030;4.686;2022-12-16T08:24:17;58.97;;;28.42;;
25123;SDS011;13104;51.030;4.686;2022-12-16T08:27:01;58.05;;;28.52;;
25123;SDS011;13104;51.030;4.686;2022-12-16T08:29:46;55.53;;;26.65;;
25123;SDS011;13104;51.030;4.686;2022-12-16T08:32:31;54.28;;;27.38;;
25123;SDS011;13104;51.030;4.686;2022-12-16T08:35:15;57.50;;;27.50;;
25123;SDS011;13104;51.030;4.686;2022-12-16T08:38:00;59.03;;;27.92;;
25123;SDS011;13104;51.030;4.686;2022-12-16T08:40:44;54.17;;;27.27;;
25123;SDS011;13104;51.030;4.686;2022-12-16T08:43:31;57.30;;;28.38;;
25123;SDS011;13104;51.030;4.686;2022-12-16T08:46:16;55.13;;;26.80;;
25123;SDS011;13104;51.030;4.686;2022-12-16T08:49:01;50.50;;;25.77;;
25123;SDS011;13104;51.030;4.686;2022-12-16T08:51:46;60.65;;;28.52;;
25123;SDS011;13104;51.030;4.686;2022-12-16T08:54:30;52.42;;;25.27;;
25123;SDS011;13104;51.030;4.686;2022-12-16T08:57:15;53.28;;;25.98;;
25123;SDS011;13104;51.030;4.686;2022-12-16T09:00:00;51.42;;;26.60;;
25123;SDS011;13104;51.030;4.686;2022-12-16T09:02:45;49.45;;;25.75;;
25123;SDS011;13104;51.030;4.686;2022-12-16T09:05:29;52.10;;;26.38;;
25123;SDS011;13104;51.030;4.686;2022-12-16T09:08:14;57.33;;;25.75;;
25123;SDS011;13104;51.030;4.686;2022-12-16T09:11:00;53.30;;;26.38;;
25123;SDS011;13104;51.030;4.686;2022-12-16T09:13:55;50.58;;;25.73;;
25123;SDS011;13104;51.030;4.686;2022-12-16T09:16:57;52.45;;;26.30;;
25123;SDS011;13104;51.030;4.686;2022-12-16T09:19:42;50.83;;;25.40;;
25123;SDS011;13104;51.030;4.686;2022-12-16T09:22:26;49.25;;;25.83;;
25123;SDS011;13104;51.030;4.686;2022-12-16T09:25:11;45.38;;;24.95;;
25123;SDS011;13104;51.030;4.686;2022-12-16T09:27:56;50.38;;;25.23;;
25123;SDS011;13104;51.030;4.686;2022-12-16T09:30:40;48.00;;;24.95;;
25123;SDS011;13104;51.030;4.686;2022-12-16T09:33:25;48.55;;;24.60;;
25123;SDS011;13104;51.030;4.686;2022-12-16T09:36:09;50.78;;;25.63;;
25123;SDS011;13104;51.030;4.686;2022-12-16T09:38:54;50.17;;;24.33;;
25123;SDS011;13104;51.030;4.686;2022-12-16T09:41:43;43.60;;;22.80;;
25123;SDS011;13104;51.030;4.686;2022-12-16T09:50:38;44.17;;;23.10;;
25123;SDS011;13104;51.030;4.686;2022-12-16T09:53:25;48.75;;;24.63;;
25123;SDS011;13104;51.030;4.686;2022-12-16T09:56:17;46.08;;;23.50;;
25123;SDS011;13104;51.030;4.686;2022-12-16T09:59:09;44.53;;;24.55;;
25123;SDS011;13104;51.030;4.686;2022-12-16T10:01:54;46.95;;;24.55;;
25123;SDS011;13104;51.030;4.686;2022-12-16T10:04:39;45.38;;;24.55;;
25123;SDS011;13104;51.030;4.686;2022-12-16T10:07:24;48.08;;;27.00;;
25123;SDS011;13104;51.030;4.686;2022-12-16T10:21:37;45.03;;;25.15;;
25123;SDS011;13104;51.030;4.686;2022-12-16T10:27:12;65.70;;;29.50;;
25123;SDS011;13104;51.030;4.686;2022-12-16T10:29:57;62.20;;;29.38;;
25123;SDS011;13104;51.030;4.686;2022-12-16T10:32:48;65.28;;;30.80;;
25123;SDS011;13104;51.030;4.686;2022-12-16T10:35:34;60.20;;;31.05;;
25123;SDS011;13104;51.030;4.686;2022-12-16T10:38:21;58.75;;;28.48;;
25123;SDS011;13104;51.030;4.686;2022-12-16T10:41:07;59.85;;;28.85;;
25123;SDS011;13104;51.030;4.686;2022-12-16T10:43:52;58.03;;;28.65;;
25123;SDS011;13104;51.030;4.686;2022-12-16T10:49:22;42.13;;;20.10;;
25123;SDS011;13104;51.030;4.686;2022-12-16T10:52:08;59.55;;;28.42;;
25123;SDS011;13104;51.030;4.686;2022-12-16T10:54:57;57.35;;;28.67;;
25123;SDS011;13104;51.030;4.686;2022-12-16T10:57:54;63.20;;;28.63;;
25123;SDS011;13104;51.030;4.686;2022-12-16T11:00:41;61.05;;;28.80;;
25123;SDS011;13104;51.030;4.686;2022-12-16T11:03:27;59.25;;;28.98;;
25123;SDS011;13104;51.030;4.686;2022-12-16T11:06:15;57.25;;;27.50;;
25123;SDS011;13104;51.030;4.686;2022-12-16T11:09:20;63.40;;;28.88;;
25123;SDS011;13104;51.030;4.686;2022-12-16T11:14:59;63.40;;;28.75;;
25123;SDS011;13104;51.030;4.686;2022-12-16T11:18:00;61.92;;;28.02;;
25123;SDS011;13104;51.030;4.686;2022-12-16T11:20:45;57.30;;;27.67;;
25123;SDS011;13104;51.030;4.686;2022-12-16T11:23:29;59.72;;;27.23;;
25123;SDS011;13104;51.030;4.686;2022-12-16T11:26:15;54.33;;;26.30;;
25123;SDS011;13104;51.030;4.686;2022-12-16T11:29:13;57.13;;;27.55;;
25123;SDS011;13104;51.030;4.686;2022-12-16T11:32:02;59.75;;;28.52;;
25123;SDS011;13104;51.030;4.686;2022-12-16T11:34:49;61.08;;;27.85;;
25123;SDS011;13104;51.030;4.686;2022-12-16T11:37:35;63.42;;;28.20;;
25123;SDS011;13104;51.030;4.686;2022-12-16T11:40:20;56.97;;;26.85;;
25123;SDS011;13104;51.030;4.686;2022-12-16T11:45:50;56.42;;;25.08;;
25123;SDS011;13104;51.030;4.686;2022-12-16T11:48:49;58.13;;;26.73;;
25123;SDS011;13104;51.030;4.686;2022-12-16T11:51:38;60.85;;;27.05;;
25123;SDS011;13104;51.030;4.686;2022-12-16T11:54:24;59.42;;;27.90;;
25123;SDS011;13104;51.030;4.686;2022-12-16T11:57:45;66.45;;;28.38;;
25123;SDS011;13104;51.030;4.686;2022-12-16T12:00:15;42.33;;;19.77;;
25123;SDS011;13104;51.030;4.686;2022-12-16T12:03:04;61.95;;;27.17;;
25123;SDS011;13104;51.030;4.686;2022-12-16T12:05:55;60.78;;;28.10;;
25123;SDS011;13104;51.030;4.686;2022-12-16T12:08:59;61.15;;;27.02;;
25123;SDS011;13104;51.030;4.686;2022-12-16T12:11:52;61.15;;;27.45;;
25123;SDS011;13104;51.030;4.686;2022-12-16T12:14:49;60.17;;;26.42;;
25123;SDS011;13104;51.030;4.686;2022-12-16T12:20:33;57.65;;;24.88;;
25123;SDS011;13104;51.030;4.686;2022-12-16T12:23:23;56.95;;;25.50;;
25123;SDS011;13104;51.030;4.686;2022-12-16T12:26:14;61.25;;;24.98;;
25123;SDS011;13104;51.030;4.686;2022-12-16T12:29:06;56.28;;;24.80;;
25123;SDS011;13104;51.030;4.686;2022-12-16T12:32:33;56.75;;;23.20;;
25123;SDS011;13104;51.030;4.686;2022-12-16T12:38:01;57.88;;;24.52;;
25123;SDS011;13104;51.030;4.686;2022-12-16T12:40:58;58.67;;;25.10;;
25123;SDS011;13104;51.030;4.686;2022-12-16T12:43:50;53.78;;;23.85;;
25123;SDS011;13104;51.030;4.686;2022-12-16T12:46:40;55.15;;;24.40;;
25123;SDS011;13104;51.030;4.686;2022-12-16T12:49:34;57.42;;;23.73;;
25123;SDS011;13104;51.030;4.686;2022-12-16T12:55:10;49.63;;;22.02;;
25123;SDS011;13104;51.030;4.686;2022-12-16T12:57:59;42.33;;;20.35;;
25123;SDS011;13104;51.030;4.686;2022-12-16T13:00:49;47.38;;;21.05;;
25123;SDS011;13104;51.030;4.686;2022-12-16T13:06:23;46.55;;;21.08;;
25123;SDS011;13104;51.030;4.686;2022-12-16T13:09:21;41.53;;;20.58;;
25123;SDS011;13104;51.030;4.686;2022-12-16T13:14:55;34.83;;;17.25;;
25123;SDS011;13104;51.030;4.686;2022-12-16T13:18:31;40.03;;;17.87;;
25123;SDS011;13104;51.030;4.686;2022-12-16T13:20:54;30.73;;;16.17;;
25123;SDS011;13104;51.030;4.686;2022-12-16T13:23:41;32.95;;;16.20;;
25123;SDS011;13104;51.030;4.686;2022-12-16T13:26:27;38.83;;;18.13;;
25123;SDS011;13104;51.030;4.686;2022-12-16T13:29:17;35.53;;;18.70;;
25123;SDS011;13104;51.030;4.686;2022-12-16T13:34:59;60.97;;;29.73;;
25123;SDS011;13104;51.030;4.686;2022-12-16T13:37:54;49.20;;;23.67;;
25123;SDS011;13104;51.030;4.686;2022-12-16T13:43:46;41.10;;;18.63;;
25123;SDS011;13104;51.030;4.686;2022-12-16T13:46:48;31.43;;;15.87;;
25123;SDS011;13104;51.030;4.686;2022-12-16T13:49:49;35.65;;;17.77;;
25123;SDS011;13104;51.030;4.686;2022-12-16T13:52:50;36.60;;;17.10;;
25123;SDS011;13104;51.030;4.686;2022-12-16T13:58:36;28.38;;;16.33;;
25123;SDS011;13104;51.030;4.686;2022-12-16T14:01:30;31.85;;;15.48;;
25123;SDS011;13104;51.030;4.686;2022-12-16T14:04:19;40.25;;;18.27;;
25123;SDS011;13104;51.030;4.686;2022-12-16T14:07:08;65.53;;;26.33;;
25123;SDS011;13104;51.030;4.686;2022-12-16T14:09:53;104.68;;;42.65;;
25123;SDS011;13104;51.030;4.686;2022-12-16T14:15:39;30.13;;;16.73;;
25123;SDS011;13104;51.030;4.686;2022-12-16T14:18:32;25.33;;;12.52;;
25123;SDS011;13104;51.030;4.686;2022-12-16T14:21:24;30.08;;;16.20;;
25123;SDS011;13104;51.030;4.686;2022-12-16T14:24:12;31.85;;;16.27;;
25123;SDS011;13104;51.030;4.686;2022-12-16T14:27:04;33.90;;;17.52;;
25123;SDS011;13104;51.030;4.686;2022-12-16T14:29:48;37.63;;;18.60;;
25123;SDS011;13104;51.030;4.686;2022-12-16T14:32:33;33.85;;;15.70;;
25123;SDS011;13104;51.030;4.686;2022-12-16T14:35:22;34.67;;;15.98;;
25123;SDS011;13104;51.030;4.686;2022-12-16T14:38:24;28.00;;;15.18;;
25123;SDS011;13104;51.030;4.686;2022-12-16T14:41:13;27.20;;;15.77;;
25123;SDS011;13104;51.030;4.686;2022-12-16T14:43:58;27.73;;;15.88;;
25123;SDS011;13104;51.030;4.686;2022-12-16T14:46:47;28.30;;;15.95;;
25123;SDS011;13104;51.030;4.686;2022-12-16T14:49:32;34.35;;;15.63;;
25123;SDS011;13104;51.030;4.686;2022-12-16T14:52:20;31.08;;;14.80;;
25123;SDS011;13104;51.030;4.686;2022-12-16T14:55:09;26.90;;;15.27;;
25123;SDS011;13104;51.030;4.686;2022-12-16T14:58:07;29.05;;;15.90;;
25123;SDS011;13104;51.030;4.686;2022-12-16T15:00:52;30.00;;;16.65;;
25123;SDS011;13104;51.030;4.686;2022-12-16T15:03:38;31.73;;;16.67;;
25123;SDS011;13104;51.030;4.686;2022-12-16T15:06:43;37.17;;;17.40;;
25123;SDS011;13104;51.030;4.686;2022-12-16T15:09:33;91.93;;;14.90;;
25123;SDS011;13104;51.030;4.686;2022-12-16T15:12:19;218.95;;;27.08;;
25123;SDS011;13104;51.030;4.686;2022-12-16T15:15:07;36.50;;;16.83;;
25123;SDS011;13104;51.030;4.686;2022-12-16T15:17:54;47.10;;;19.80;;
25123;SDS011;13104;51.030;4.686;2022-12-16T15:20:48;52.03;;;19.70;;
25123;SDS011;13104;51.030;4.686;2022-12-16T15:23:32;68.78;;;21.75;;
25123;SDS011;13104;51.030;4.686;2022-12-16T15:29:02;70.22;;;27.50;;
25123;SDS011;13104;51.030;4.686;2022-12-16T15:34:45;75.63;;;21.60;;
25123;SDS011;13104;51.030;4.686;2022-12-16T15:37:37;65.03;;;25.70;;
25123;SDS011;13104;51.030;4.686;2022-12-16T15:43:41;63.38;;;29.23;;
25123;SDS011;13104;51.030;4.686;2022-12-16T15:46:25;53.30;;;24.13;;
25123;SDS011;13104;51.030;4.686;2022-12-16T15:52:20;52.65;;;23.25;;
25123;SDS011;13104;51.030;4.686;2022-12-16T15:58:15;53.92;;;24.23;;
25123;SDS011;13104;51.030;4.686;2022-12-16T16:01:02;51.28;;;21.95;;
25123;SDS011;13104;51.030;4.686;2022-12-16T16:03:49;46.00;;;20.38;;
25123;SDS011;13104;51.030;4.686;2022-12-16T16:06:34;41.42;;;20.02;;
25123;SDS011;13104;51.030;4.686;2022-12-16T16:12:24;40.17;;;19.70;;
25123;SDS011;13104;51.030;4.686;2022-12-16T16:15:10;42.72;;;19.40;;
25123;SDS011;13104;51.030;4.686;2022-12-16T16:17:56;35.72;;;20.13;;
25123;SDS011;13104;51.030;4.686;2022-12-16T16:20:41;38.13;;;20.52;;
25123;SDS011;13104;51.030;4.686;2022-12-16T16:23:26;41.97;;;20.50;;
25123;SDS011;13104;51.030;4.686;2022-12-16T16:26:12;49.42;;;20.90;;
25123;SDS011;13104;51.030;4.686;2022-12-16T16:28:58;39.85;;;20.42;;
25123;SDS011;13104;51.030;4.686;2022-12-16T16:31:42;42.83;;;20.83;;
25123;SDS011;13104;51.030;4.686;2022-12-16T16:34:28;41.28;;;20.55;;
25123;SDS011;13104;51.030;4.686;2022-12-16T16:37:14;38.17;;;20.15;;
25123;SDS011;13104;51.030;4.686;2022-12-16T16:40:00;40.50;;;20.08;;
25123;SDS011;13104;51.030;4.686;2022-12-16T16:42:45;44.30;;;19.95;;
25123;SDS011;13104;51.030;4.686;2022-12-16T16:45:30;39.35;;;20.70;;
25123;SDS011;13104;51.030;4.686;2022-12-16T16:48:16;46.67;;;23.35;;
25123;SDS011;13104;51.030;4.686;2022-12-16T16:51:01;55.15;;;23.35;;
25123;SDS011;13104;51.030;4.686;2022-12-16T16:53:47;49.17;;;24.48;;
25123;SDS011;13104;51.030;4.686;2022-12-16T16:56:32;58.72;;;25.75;;
25123;SDS011;13104;51.030;4.686;2022-12-16T16:59:17;52.60;;;26.65;;
25123;SDS011;13104;51.030;4.686;2022-12-16T17:02:18;55.03;;;27.58;;
25123;SDS011;13104;51.030;4.686;2022-12-16T17:05:02;51.70;;;26.15;;
25123;SDS011;13104;51.030;4.686;2022-12-16T17:07:47;57.50;;;27.00;;
25123;SDS011;13104;51.030;4.686;2022-12-16T17:10:32;58.63;;;27.70;;
25123;SDS011;13104;51.030;4.686;2022-12-16T17:13:17;55.50;;;27.20;;
25123;SDS011;13104;51.030;4.686;2022-12-16T17:16:01;60.42;;;27.10;;
25123;SDS011;13104;51.030;4.686;2022-12-16T17:18:46;56.33;;;26.98;;
25123;SDS011;13104;51.030;4.686;2022-12-16T17:21:30;74.43;;;31.45;;
25123;SDS011;13104;51.030;4.686;2022-12-16T17:24:15;181.60;;;59.90;;
25123;SDS011;13104;51.030;4.686;2022-12-16T17:30:20;129.15;;;51.45;;
25123;SDS011;13104;51.030;4.686;2022-12-16T17:33:05;125.70;;;51.90;;
25123;SDS011;13104;51.030;4.686;2022-12-16T17:35:50;88.20;;;38.88;;
25123;SDS011;13104;51.030;4.686;2022-12-16T17:38:41;81.38;;;35.58;;
25123;SDS011;13104;51.030;4.686;2022-12-16T17:41:27;89.13;;;39.65;;
25123;SDS011;13104;51.030;4.686;2022-12-16T17:44:12;86.60;;;40.20;;
25123;SDS011;13104;51.030;4.686;2022-12-16T17:46:57;105.68;;;43.67;;
25123;SDS011;13104;51.030;4.686;2022-12-16T17:52:27;52.57;;;22.50;;
25123;SDS011;13104;51.030;4.686;2022-12-16T17:55:12;84.32;;;38.45;;